»·PEaware :: N973SE KBFL-KSBP

N973SE :: KBFL-KSBP

FLIGHT INFORMATION

Flight Status: Arrived
Operator: Privately registered:
United States
More flights under this callsign
Pilot: Stig E. (4778)
Aircraft: CESSNA 310
(C310)
More flights by this aircraft type
Origin: KBFL Meadows
United States
Destination: KSBP San Luis Co Regl
United States
More flights between these airports :: More routes between these airports
Route: FASTO GMN LHS FIM V386 RZS FLW
File this flight plan on PilotEdge
Remarks:
Altitude:
(Current/Filed)
14,500ft
Speed:
(Current/Filed)
170kts
Departed: 19-Jan-19 12:17 AM
Arrived: 19-Jan-19 01:26 AM
Distance/Time
Traveled:
78nm/1:09
Distance/Time
To Go:
Arrived

Flight Plot

Page will automatically refresh every two minutes.

Flight plan parsing failed; only flown route is shown


Map Options




Map Legend


Flown Route
Filed Route
Departure Airport
Arrival Airport
Navaid (VOR, NDB)
Fix

Horizontal Profiles

Position Reports

Time Latitude Longitude Heading Altitude Ground
Speed
19-Jan-19 00:08 35.435714 -119.052044 180 509ft 0kts
19-Jan-19 00:09 35.435714 -119.052044 180 509ft 0kts
19-Jan-19 00:10 35.435714 -119.052044 180 509ft 0kts
19-Jan-19 00:11 35.435714 -119.052044 180 509ft 0kts
19-Jan-19 00:12 35.435416 -119.053312 234 502ft 17kts
19-Jan-19 00:13 35.437457 -119.058289 316 496ft 21kts
19-Jan-19 00:14 35.441725 -119.063531 314 503ft 21kts
19-Jan-19 00:15 35.443236 -119.066180 278 504ft 0kts
19-Jan-19 00:16 35.433992 -119.056356 135 841ft 109kts
19-Jan-19 00:17 35.405199 -119.021107 138 1973ft 171kts
19-Jan-19 00:18 35.370591 -118.980312 134 2970ft 170kts
19-Jan-19 00:19 35.337107 -118.939691 134 3972ft 168kts
19-Jan-19 00:20 35.303668 -118.899123 134 4976ft 170kts
19-Jan-19 00:21 35.268675 -118.860627 169 5973ft 172kts
19-Jan-19 00:22 35.220731 -118.861154 180 6989ft 174kts
19-Jan-19 00:23 35.171823 -118.861241 180 7996ft 177kts
19-Jan-19 00:24 35.122070 -118.861231 180 9005ft 180kts
19-Jan-19 00:25 35.071606 -118.861213 180 10013ft 183kts
19-Jan-19 00:26 35.020369 -118.861191 180 11022ft 186kts
19-Jan-19 00:27 34.967903 -118.861119 181 12038ft 191kts
19-Jan-19 00:28 34.913793 -118.860978 182 13060ft 198kts
19-Jan-19 00:29 34.857280 -118.860940 182 14065ft 205kts
19-Jan-19 00:30 34.799696 -118.851915 126 14500ft 228kts
19-Jan-19 00:31 34.770099 -118.782541 110 14515ft 231kts
19-Jan-19 00:32 34.740866 -118.713060 111 14509ft 230kts
19-Jan-19 00:33 34.711433 -118.643801 111 14497ft 230kts
19-Jan-19 00:34 34.670284 -118.590774 193 14471ft 236kts
19-Jan-19 00:35 34.619542 -118.635058 225 14435ft 226kts
19-Jan-19 00:36 34.569681 -118.682246 224 14402ft 227kts
19-Jan-19 00:37 34.519674 -118.729027 224 14390ft 226kts
19-Jan-19 00:38 34.469832 -118.775519 224 14390ft 226kts
19-Jan-19 00:39 34.419875 -118.822041 224 14391ft 225kts
19-Jan-19 00:40 34.370076 -118.868314 222 14391ft 225kts
19-Jan-19 00:41 34.342490 -118.919363 312 14405ft 182kts
19-Jan-19 00:42 34.368076 -118.973427 295 14391ft 190kts
19-Jan-19 00:43 34.382705 -119.035628 289 14390ft 192kts
19-Jan-19 00:44 34.394526 -119.099085 288 14392ft 193kts
19-Jan-19 00:45 34.405759 -119.162795 287 14394ft 193kts
19-Jan-19 00:46 34.416830 -119.226456 287 14397ft 193kts
19-Jan-19 00:47 34.427837 -119.290083 287 14399ft 193kts
19-Jan-19 00:48 34.438678 -119.353055 288 14342ft 186kts
19-Jan-19 00:49 34.449291 -119.414785 287 13841ft 187kts
19-Jan-19 00:50 34.459905 -119.476756 287 13336ft 187kts
19-Jan-19 00:51 34.470470 -119.538654 287 12829ft 187kts
19-Jan-19 00:52 34.480988 -119.600464 287 12322ft 187kts
19-Jan-19 00:53 34.491469 -119.662268 286 11816ft 186kts
19-Jan-19 00:54 34.501937 -119.724167 286 11317ft 186kts
19-Jan-19 00:55 34.526919 -119.770160 346 10826ft 176kts
19-Jan-19 00:56 34.574955 -119.780733 350 10502ft 170kts
19-Jan-19 00:57 34.620445 -119.788693 351 10503ft 162kts
19-Jan-19 00:58 34.664715 -119.795991 351 10504ft 160kts
19-Jan-19 00:59 34.708965 -119.803176 351 10505ft 160kts
19-Jan-19 01:00 34.752937 -119.810291 351 10511ft 159kts
19-Jan-19 01:01 34.797049 -119.817429 351 10438ft 164kts
19-Jan-19 01:02 34.844401 -119.825097 351 9938ft 175kts
19-Jan-19 01:03 34.892491 -119.832869 351 9343ft 172kts
19-Jan-19 01:04 34.939808 -119.840548 351 8527ft 170kts
19-Jan-19 01:05 34.986639 -119.848158 351 7715ft 169kts
19-Jan-19 01:06 35.033320 -119.855753 351 6902ft 169kts
19-Jan-19 01:07 35.061975 -119.860419 351 6509ft 163kts
19-Jan-19 01:08 35.092014 -119.886933 285 6499ft 149kts
19-Jan-19 01:10 35.098690 -119.936435 282 6500ft 146kts
19-Jan-19 01:11 35.103663 -119.986015 280 6366ft 154kts
19-Jan-19 01:12 35.108527 -120.040403 279 5884ft 164kts
19-Jan-19 01:13 35.113079 -120.095880 278 5386ft 160kts
19-Jan-19 01:14 35.117416 -120.148607 278 4971ft 152kts
19-Jan-19 01:15 35.121688 -120.199919 277 4572ft 151kts
19-Jan-19 01:16 35.125925 -120.250910 277 4174ft 150kts
19-Jan-19 01:17 35.130120 -120.301674 277 3776ft 150kts
19-Jan-19 01:18 35.134303 -120.352514 276 3375ft 149kts
19-Jan-19 01:19 35.138431 -120.402960 276 2977ft 149kts
19-Jan-19 01:20 35.142540 -120.453449 276 2577ft 148kts
19-Jan-19 01:21 35.159522 -120.497999 303 2180ft 147kts
19-Jan-19 01:22 35.180253 -120.536396 302 1750ft 126kts
19-Jan-19 01:23 35.197704 -120.569909 302 1536ft 111kts
19-Jan-19 01:24 35.214227 -120.601856 304 1030ft 108kts
19-Jan-19 01:25 35.231418 -120.630753 306 266ft 101kts
19-Jan-19 01:26 35.237995 -120.638942 34 216ft 9kts
19-Jan-19 01:27 35.238748 -120.639744 202 216ft 0kts
19-Jan-19 01:28 35.238748 -120.639744 202 216ft 0kts

Navigation Log

Ident Type
Flight plan parsing failed, navigation log unavailable